• Join FlightAware (Why Join?)
  • Login
  • US Flag 
03:58PM EDT


 

Airport Tracker/Info


-or-


 

Live Flight TrackerFlight Track Log ✈ UAL1163 ✈ 24-Apr-2013 ✈ KEWR - KBOS

Flight Track Log - Related Links

Times and Time Zones

All times are in EDT time to prevent confusion due to time zone crossing. See the UAL1163 flight status page for this flight to view local times or setup timezone preferences in your user account.

Time Position Orientation Groundspeed Altitude Reporting Facility
EDT Latitude Longitude Course Direction KTS MPH feet Rate Location/Type
10:19AM 40.6687 -74.1816 69° East 166 191 700  Level FlightAware ADS-B
10:19AM 40.6645 -74.1821 185° South 170 196 900 1,980 Climbing FlightAware ADS-B
10:19AM 40.6615 -74.1820 179° South 174 200 1,000 1,260 Climbing FlightAware ADS-B
10:19AM 40.6524 -74.1821 180° South 189 217 1,200 1,500 Climbing FlightAware ADS-B
10:19AM 40.6480 -74.1833 192° South 192 221 1,400 1,980 Climbing FlightAware ADS-B
10:19AM 40.6449 -74.1849 201° Southwest 194 223 1,500 1,980 Climbing FlightAware ADS-B
10:19AM 40.6410 -74.1883 213° Southwest 197 227 1,700 2,640 Climbing FlightAware ADS-B
10:19AM 40.6382 -74.1922 227° Southwest 199 229 1,900 3,240 Climbing FlightAware ADS-B
10:19AM 40.6352 -74.2000 243° Southwest 199 229 2,300 4,200 Climbing FlightAware ADS-B
10:19AM 40.6346 -74.2035 257° West 195 224 2,600 3,720 Climbing FlightAware ADS-B
10:20AM 40.6344 -74.2084 267° West 195 224 2,800 3,000 Climbing FlightAware ADS-B
10:20AM 40.6356 -74.2156 282° West 200 230 3,100 3,000 Climbing FlightAware ADS-B
10:20AM 40.6375 -74.2201 299° West 205 236 3,300 3,000 Climbing FlightAware ADS-B
10:20AM 40.6406 -74.2253 308° West 210 242 3,600 2,400 Climbing FlightAware ADS-B
10:20AM 40.6447 -74.2301 318° Northwest 222 255 3,700 1,620 Climbing FlightAware ADS-B
10:20AM 40.6500 -74.2348 326° Northwest 235 270 3,900 2,400 Climbing FlightAware ADS-B
10:20AM 40.6689 -74.2497 329° Northwest 254 292 4,700 2,700 Climbing FlightAware ADS-B
10:21AM 40.6865 -74.2617 333° Northwest 254 292 5,500 1,560 Climbing FlightAware ADS-B
10:21AM 40.7235 -74.2560 North 254 292 5,900 660 Climbing FlightAware ADS-B
10:21AM 40.7269 -74.2529 35° Northeast 285 328 5,900  Level FlightAware ADS-B
10:21AM 40.7307 -74.2490 38° Northeast 287 330 5,900  Level FlightAware ADS-B
10:21AM 40.7342 -74.2444 45° Northeast 288 331 5,900  Level FlightAware ADS-B
10:21AM 40.7372 -74.2396 50° Northeast 291 335 5,900  Level FlightAware ADS-B
10:21AM 40.7404 -74.2333 56° Northeast 293 337 5,900 600 Level FlightAware ADS-B
10:21AM 40.7435 -74.2249 64° Northeast 295 339 6,000 1,320 Climbing FlightAware ADS-B
10:21AM 40.7455 -74.2167 72° East 298 343 6,100 1,500 Climbing FlightAware ADS-B
10:22AM 40.7491 -74.1953 77° East 303 349 6,400 2,460 Climbing FlightAware ADS-B
10:22AM 40.7535 -74.1660 79° East 301 346 7,300 3,360 Climbing FlightAware ADS-B
10:22AM 40.7577 -74.1379 79° East 303 349 8,200 3,600 Climbing FlightAware ADS-B
10:22AM 40.7623 -74.1104 78° East 306 352 9,100 2,760 Climbing FlightAware ADS-B
10:23AM 40.7675 -74.0787 78° East 311 358 9,700 1,200 Climbing FlightAware ADS-B
10:23AM 40.7736 -74.0434 77° East 351 404 9,800 480 Climbing FlightAware ADS-B
10:23AM 40.7760 -74.0329 73° East 358 412 9,900 420 Climbing FlightAware ADS-B
10:23AM 40.7814 -74.0162 67° East 366 421 9,900  Level FlightAware ADS-B
10:23AM 40.7881 -74.0010 60° Northeast 370 426 9,900  Level FlightAware ADS-B
10:23AM 40.7930 -73.9918 55° Northeast 373 429 9,900  Level FlightAware ADS-B
10:24AM 40.8122 -73.9633 48° Northeast 374 430 9,900 660 Level FlightAware ADS-B
10:25AM 40.8660 -73.8880 47° Northeast 377 434 10,600 960 Climbing FlightAware
10:25AM 40.9200 -73.8100 47° Northeast 385 443 11,400 960 Climbing FlightAware
10:26AM 40.9690 -73.7380 48° Northeast 395 455 12,000 900 Climbing FlightAware
10:27AM 41.0170 -73.6700 47° Northeast 398 458 12,600 1,200 Climbing FlightAware
10:27AM 41.0670 -73.5980 47° Northeast 401 461 13,600 2,460 Climbing FlightAware
10:29AM 41.1950 -73.4100 48° Northeast 421 484 18,400 2,760 Climbing FlightAware
10:30AM 41.2350 -73.3090 62° Northeast 434 499 20,400 1,800 Climbing FlightAware
10:30AM 41.2620 -73.2090 70° East 430 495 21,000 420 Climbing FlightAware
10:31AM 41.2870 -73.1140 71° East 428 493 21,000  Level FlightAware
10:32AM 41.3150 -73.0080 71° East 425 489 21,000  Level FlightAware
10:32AM 41.3420 -72.9070 70° East 425 489 21,000  Level FlightAware
10:33AM 41.3730 -72.7940 70° East 424 488 21,000  Level FlightAware
10:34AM 41.3990 -72.6940 71° East 424 488 21,000  Level FlightAware
10:35AM 41.4280 -72.5840 71° East 422 486 21,000  Level FlightAware
10:35AM 41.4500 -72.5010 71° East 421 484 21,000  Level FlightAware
10:36AM 41.4790 -72.3860 71° East 421 484 21,000  Level FlightAware
10:37AM 41.5010 -72.3030 70° East 422 486 21,000  Level FlightAware
10:37AM 41.5360 -72.1710 70° East 423 487 21,000  Level FlightAware
10:38AM 41.5620 -72.0710 71° East 425 489 21,000  Level FlightAware
10:39AM 41.5900 -71.9600 71° East 422 486 21,000  Level FlightAware
10:39AM 41.6150 -71.8620 71° East 420 483 21,000  Level FlightAware
10:40AM 41.6430 -71.7500 71° East 426 490 21,000 -720 Level FlightAware
10:41AM 41.6680 -71.6530 71° East 419 482 20,000 -1,920 Descending FlightAware
10:42AM 41.6960 -71.5420 71° East 409 471 18,300 -2,280 Descending FlightAware
10:42AM 41.7200 -71.4490 71° East 402 463 16,800 -2,280 Descending FlightAware
10:43AM 41.7540 -71.3610 63° Northeast 390 449 15,300 -2,280 Descending FlightAware
10:44AM 41.7890 -71.2790 60° Northeast 380 437 13,800 -2,220 Descending FlightAware
10:44AM 41.8260 -71.1920 60° Northeast 369 425 12,200 -2,160 Descending FlightAware
10:45AM 41.8590 -71.1130 61° Northeast 359 413 10,800 -1,440 Descending FlightAware
10:46AM 41.8860 -71.0510 60° Northeast 326 375 10,200 -720 Descending FlightAware
10:46AM 41.9140 -70.9860 60° Northeast 311 358 10,000 -780 Descending FlightAware
10:47AM 41.9350 -70.9450 55° Northeast 288 331 9,500 -1,200 Descending FlightAware
10:47AM 41.9510 -70.9160 53° Northeast 289 333 9,000 -1,440 Descending FlightAware
10:48AM 41.9850 -70.8820 37° Northeast 267 307 8,200 -1,440 Descending FlightAware
10:48AM 42.0040 -70.8670 30° Northeast 272 313 7,800 -1,380 Descending FlightAware
10:48AM 42.0320 -70.8450 30° Northeast 261 300 7,300 -1,080 Descending FlightAware
10:48AM 42.0380 -70.8390 37° Northeast 258 297 7,200 -840 Descending FlightAware
10:49AM 42.0730 -70.8110 31° Northeast 233 268 6,700 -720 Descending FlightAware
10:49AM 42.0870 -70.8000 30° Northeast 230 265 6,600 -600 Descending FlightAware
10:50AM 42.1070 -70.7820 34° Northeast 214 246 6,300 -900 Descending FlightAware
10:50AM 42.1240 -70.7690 30° Northeast 213 245 6,000 -840 Descending FlightAware
10:50AM 42.1470 -70.7490 33° Northeast 200 230 5,700 -720 Descending FlightAware
10:51AM 42.1710 -70.7550 350° North 172 198 5,300 -720 Descending FlightAware
10:53AM 42.2150 -70.8030 321° Northwest 157 181 4,300 -780 Descending FlightAware
10:54AM 42.2480 -70.8480 315° West 157 181 2,900 -960 Descending FlightAware